Time;durP1;ratioP1;P1;durP2;ratioP2;P2;SDS_P1;SDS_P2;PMS_P1;PMS_P2;Temp;Humidity;BMP_temperature;BMP_pressure;BME280_temperature;BME280_humidity;BME280_pressure;Samples;Min_cycle;Max_cycle;Signal;HPM_P1;HPM_P2
2021/09/06 00:01:45;;;;;;;5.47;3.70;;;22.70;50.00;;;;;;6180796;28;80877;-62
2021/09/06 00:04:45;;;;;;;5.22;3.55;;;22.70;49.80;;;;;;6183071;28;80298;-62
2021/09/06 00:07:47;;;;;;;5.68;3.72;;;22.70;50.10;;;;;;6181214;28;80327;-62
2021/09/06 00:10:50;;;;;;;5.80;3.38;;;22.60;49.70;;;;;;6183528;28;82806;-62
2021/09/06 00:13:51;;;;;;;8.82;3.83;;;22.70;49.90;;;;;;6177914;28;81858;-62
2021/09/06 00:16:52;;;;;;;6.95;4.00;;;22.70;49.70;;;;;;6183420;28;80798;-62
2021/09/06 00:19:52;;;;;;;6.07;3.90;;;22.60;49.80;;;;;;6181203;28;81381;-62
2021/09/06 00:22:53;;;;;;;7.53;4.18;;;22.60;49.30;;;;;;6181646;28;80799;-62
2021/09/06 00:25:53;;;;;;;6.82;3.90;;;22.70;49.90;;;;;;6176633;28;80576;-62
2021/09/06 00:28:54;;;;;;;8.23;4.53;;;22.60;49.70;;;;;;6182316;28;81302;-62
2021/09/06 00:31:54;;;;;;;5.75;3.78;;;22.70;49.80;;;;;;6183585;28;80322;-62
2021/09/06 00:34:55;;;;;;;7.18;4.30;;;22.60;49.70;;;;;;6181415;28;81596;-62
2021/09/06 00:37:55;;;;;;;5.00;3.40;;;22.60;49.60;;;;;;6181069;28;80480;-62
2021/09/06 00:40:56;;;;;;;6.50;3.95;;;22.60;49.80;;;;;;6164168;28;81510;-62
2021/09/06 00:43:56;;;;;;;6.15;4.00;;;22.60;49.70;;;;;;6181583;28;83634;-62
2021/09/06 00:47:00;;;;;;;7.18;4.35;;;22.60;49.60;;;;;;6180659;28;81001;-62
2021/09/06 00:50:02;;;;;;;6.32;4.25;;;22.60;49.70;;;;;;6181373;28;80101;-62
2021/09/06 00:53:03;;;;;;;6.35;3.55;;;22.60;49.70;;;;;;6183129;28;80258;-63
2021/09/06 00:56:03;;;;;;;7.50;3.97;;;22.60;49.70;;;;;;6183117;28;83142;-62
2021/09/06 00:59:08;;;;;;;6.78;3.92;;;22.60;49.40;;;;;;6180846;28;80341;-62
2021/09/06 01:02:12;;;;;;;6.15;3.78;;;22.60;49.50;;;;;;6181208;28;83597;-62
2021/09/06 01:05:13;;;;;;;6.30;3.72;;;22.60;49.60;;;;;;6182645;28;81060;-62
2021/09/06 01:08:33;;;;;;;5.60;4.05;;;22.60;49.60;;;;;;6182024;28;81463;-62
2021/09/06 01:11:59;;;;;;;6.40;4.03;;;22.60;49.70;;;;;;6177290;28;82501;-62
2021/09/06 01:15:04;;;;;;;6.40;4.23;;;22.60;49.90;;;;;;6174629;28;87549;-62
2021/09/06 01:18:08;;;;;;;5.60;3.75;;;22.60;49.60;;;;;;6179591;28;81826;-63
2021/09/06 01:21:09;;;;;;;5.55;3.72;;;22.60;49.60;;;;;;6179405;28;84376;-63
2021/09/06 01:24:26;;;;;;;5.57;3.90;;;22.60;49.50;;;;;;6179828;28;83048;-62
2021/09/06 01:27:30;;;;;;;5.50;3.40;;;22.60;49.30;;;;;;6168530;28;83513;-62
2021/09/06 01:30:30;;;;;;;6.53;3.83;;;22.60;49.40;;;;;;6170742;28;82878;-62
2021/09/06 01:33:31;;;;;;;6.65;4.18;;;22.60;49.10;;;;;;6176333;28;83001;-62
2021/09/06 01:36:32;;;;;;;5.30;3.67;;;22.60;49.20;;;;;;6186119;28;81577;-62
2021/09/06 01:39:33;;;;;;;6.95;3.83;;;22.50;48.90;;;;;;6186854;28;83461;-62
2021/09/06 01:42:34;;;;;;;6.30;3.85;;;22.60;49.30;;;;;;6186415;28;81576;-62
2021/09/06 01:45:38;;;;;;;6.35;3.70;;;22.60;49.70;;;;;;6192225;28;81572;-62
2021/09/06 01:48:39;;;;;;;7.40;3.83;;;22.60;49.10;;;;;;6194242;28;82816;-62
2021/09/06 01:51:40;;;;;;;5.03;3.50;;;22.60;48.70;;;;;;6186601;28;82790;-62
2021/09/06 01:54:41;;;;;;;5.50;3.53;;;22.50;48.90;;;;;;6169204;28;83569;-61
2021/09/06 01:57:43;;;;;;;6.95;4.00;;;22.50;48.90;;;;;;6175195;28;82186;-62
2021/09/06 02:00:47;;;;;;;5.43;3.55;;;22.50;49.50;;;;;;6179578;28;82265;-62
2021/09/06 02:03:48;;;;;;;5.82;3.78;;;22.50;48.90;;;;;;6179767;28;83021;-62
2021/09/06 02:06:50;;;;;;;4.90;3.65;;;22.50;48.90;;;;;;6176369;28;83558;-62
2021/09/06 02:09:50;;;;;;;6.18;3.47;;;22.50;48.60;;;;;;6182042;28;80955;-62
2021/09/06 02:12:51;;;;;;;5.28;3.40;;;22.50;48.90;;;;;;6185523;28;83150;-61
2021/09/06 02:15:54;;;;;;;5.30;3.33;;;22.50;48.70;;;;;;6180049;28;81499;-62
2021/09/06 02:18:59;;;;;;;4.75;3.13;;;22.50;48.70;;;;;;6184046;28;81898;-62
2021/09/06 02:22:00;;;;;;;5.00;3.20;;;22.50;48.50;;;;;;6179087;28;82929;-62
2021/09/06 02:25:01;;;;;;;9.82;4.07;;;22.50;48.60;;;;;;6182223;28;82862;-62
2021/09/06 02:28:05;;;;;;;6.53;3.60;;;22.50;48.40;;;;;;6181856;28;83277;-62
2021/09/06 02:31:06;;;;;;;5.80;3.90;;;22.50;48.60;;;;;;6185611;28;80441;-62
2021/09/06 02:34:23;;;;;;;6.72;3.70;;;22.50;48.50;;;;;;6193005;28;83082;-62
2021/09/06 02:37:24;;;;;;;5.78;3.90;;;22.50;48.20;;;;;;6183876;28;83064;-62
2021/09/06 02:40:25;;;;;;;5.60;3.72;;;22.50;48.10;;;;;;6184081;28;83194;-62
2021/09/06 02:43:26;;;;;;;4.95;3.45;;;22.50;48.80;;;;;;6187462;28;81571;-61
2021/09/06 02:46:26;;;;;;;6.88;3.17;;;22.50;48.20;;;;;;6185075;28;80785;-61
2021/09/06 02:49:28;;;;;;;6.07;4.22;;;22.50;48.10;;;;;;6185931;28;83234;-61
2021/09/06 02:52:29;;;;;;;4.60;3.17;;;22.50;48.20;;;;;;6159149;28;82796;-62
2021/09/06 02:55:30;;;;;;;7.63;3.92;;;22.50;48.70;;;;;;6185402;28;83029;-61
2021/09/06 02:58:30;;;;;;;6.25;3.53;;;22.50;48.30;;;;;;6180905;28;82816;-62
2021/09/06 03:01:31;;;;;;;7.55;3.88;;;22.50;48.50;;;;;;6186000;28;82889;-62
2021/09/06 03:04:34;;;;;;;5.10;3.53;;;22.40;48.30;;;;;;6195242;28;81449;-62
2021/09/06 03:07:36;;;;;;;4.53;2.95;;;22.40;48.00;;;;;;6193900;28;83400;-63
2021/09/06 03:10:38;;;;;;;3.97;3.10;;;22.40;47.80;;;;;;6176192;28;82669;-64
2021/09/06 03:13:40;;;;;;;5.35;3.45;;;22.40;48.20;;;;;;6183121;28;81814;-63
2021/09/06 03:16:41;;;;;;;5.28;3.38;;;22.50;48.50;;;;;;6164722;28;83346;-63
2021/09/06 03:19:42;;;;;;;5.75;3.17;;;22.50;48.60;;;;;;6189186;28;82145;-63
2021/09/06 03:22:43;;;;;;;4.57;3.50;;;22.40;48.50;;;;;;6184528;28;80361;-63
2021/09/06 03:25:43;;;;;;;4.90;3.17;;;22.40;48.40;;;;;;6185182;28;82209;-63
2021/09/06 03:28:45;;;;;;;6.68;3.97;;;22.50;48.30;;;;;;6192076;28;83134;-63
2021/09/06 03:31:48;;;;;;;6.25;3.60;;;22.50;48.50;;;;;;6185947;28;83244;-65
2021/09/06 03:34:50;;;;;;;5.93;3.58;;;22.40;48.20;;;;;;6182755;28;83658;-63
2021/09/06 03:37:51;;;;;;;6.00;3.53;;;22.40;47.90;;;;;;6183451;28;80436;-63
2021/09/06 03:40:55;;;;;;;6.75;3.75;;;22.40;48.30;;;;;;6182747;28;83536;-63
2021/09/06 03:43:57;;;;;;;4.90;3.50;;;22.40;47.90;;;;;;6191170;28;83312;-63
2021/09/06 03:46:57;;;;;;;5.80;3.67;;;22.40;48.20;;;;;;6181487;28;82471;-64
2021/09/06 03:49:58;;;;;;;4.63;3.20;;;22.40;48.00;;;;;;6182831;28;83149;-63
2021/09/06 03:52:58;;;;;;;8.02;4.18;;;22.40;47.80;;;;;;6182662;28;80354;-65
2021/09/06 03:55:59;;;;;;;4.75;3.20;;;22.40;48.00;;;;;;6192504;28;83259;-65
2021/09/06 03:59:04;;;;;;;4.82;3.33;;;22.40;47.60;;;;;;6182039;28;82973;-64
2021/09/06 04:02:05;;;;;;;6.28;3.75;;;22.40;47.50;;;;;;6167212;28;82015;-64
2021/09/06 04:05:06;;;;;;;6.10;4.07;;;22.40;47.40;;;;;;6171082;28;82417;-62
2021/09/06 04:08:06;;;;;;;6.82;4.10;;;22.40;48.10;;;;;;6181642;28;80735;-63
2021/09/06 04:11:07;;;;;;;6.53;3.42;;;22.40;47.60;;;;;;6176185;28;83383;-63
2021/09/06 04:14:15;;;;;;;6.70;3.45;;;22.40;47.70;;;;;;6193406;28;81739;-64
2021/09/06 04:17:16;;;;;;;7.65;3.33;;;22.40;48.10;;;;;;6180971;28;81900;-64
2021/09/06 04:20:19;;;;;;;5.90;3.42;;;22.40;48.90;;;;;;6180273;28;83083;-64
2021/09/06 04:23:20;;;;;;;5.15;3.60;;;22.40;48.80;;;;;;6180770;28;83024;-64
2021/09/06 04:26:21;;;;;;;5.55;3.50;;;22.40;49.10;;;;;;6164375;28;83127;-63
2021/09/06 04:29:23;;;;;;;5.97;3.85;;;22.40;49.10;;;;;;6180861;28;81542;-63
2021/09/06 04:32:27;;;;;;;8.50;3.50;;;22.40;49.50;;;;;;6182127;28;82561;-65
2021/09/06 04:35:28;;;;;;;6.25;3.30;;;22.50;49.80;;;;;;6181253;28;83470;-64
2021/09/06 04:38:29;;;;;;;6.70;3.47;;;22.50;48.90;;;;;;6182360;28;83308;-63
2021/09/06 04:41:29;;;;;;;5.82;3.38;;;22.50;49.30;;;;;;6182553;28;83518;-64
2021/09/06 04:44:31;;;;;;;6.60;3.65;;;22.50;50.30;;;;;;6179004;28;82903;-64
2021/09/06 04:47:32;;;;;;;5.70;3.00;;;22.50;50.10;;;;;;6165620;28;82684;-63
2021/09/06 04:50:33;;;;;;;6.28;3.78;;;22.50;50.70;;;;;;6182802;28;81782;-65
2021/09/06 04:53:34;;;;;;;6.22;3.53;;;22.50;50.30;;;;;;6193931;28;82895;-64
2021/09/06 04:56:36;;;;;;;4.90;3.28;;;22.50;49.80;;;;;;6179006;28;83182;-63
2021/09/06 04:59:40;;;;;;;8.88;4.40;;;22.50;50.00;;;;;;6182549;28;83380;-63
2021/09/06 05:02:40;;;;;;;7.07;3.90;;;22.50;49.90;;;;;;6182822;28;80850;-65
2021/09/06 05:05:41;;;;;;;6.13;3.38;;;22.50;50.20;;;;;;6180916;28;81886;-64
2021/09/06 05:08:42;;;;;;;6.43;3.67;;;22.50;49.90;;;;;;6190641;28;81610;-65
2021/09/06 05:11:42;;;;;;;6.00;3.42;;;22.50;49.70;;;;;;6197487;28;82958;-64
2021/09/06 05:14:43;;;;;;;7.93;3.58;;;22.50;49.80;;;;;;6171306;28;81909;-63
2021/09/06 05:17:44;;;;;;;5.35;3.47;;;22.50;50.00;;;;;;6174825;28;83318;-65
2021/09/06 05:20:46;;;;;;;10.23;3.78;;;22.60;49.90;;;;;;6183340;28;83288;-65
2021/09/06 05:23:47;;;;;;;5.82;3.90;;;22.60;50.20;;;;;;6179410;28;82750;-65
2021/09/06 05:26:51;;;;;;;7.07;3.88;;;22.60;51.00;;;;;;6182317;28;82981;-65
2021/09/06 05:29:51;;;;;;;7.05;3.88;;;22.60;50.30;;;;;;6182767;28;81110;-64
2021/09/06 05:32:52;;;;;;;9.75;4.43;;;22.60;50.40;;;;;;6179521;28;83154;-66
2021/09/06 05:35:53;;;;;;;12.52;3.53;;;22.60;50.10;;;;;;6179471;28;81265;-65
2021/09/06 05:38:55;;;;;;;11.35;4.15;;;22.60;50.40;;;;;;6187031;28;83052;-64
2021/09/06 05:42:27;;;;;;;11.10;3.92;;;22.60;50.70;;;;;;6189391;28;84631;-67
2021/09/06 05:45:29;;;;;;;9.50;3.80;;;22.60;50.90;;;;;;6165297;28;83013;-64
2021/09/06 05:48:29;;;;;;;8.02;3.95;;;22.60;51.40;;;;;;6176037;28;81375;-64
2021/09/06 05:51:30;;;;;;;5.18;3.10;;;22.60;50.50;;;;;;6166249;28;82245;-66
2021/09/06 05:54:45;;;;;;;6.45;3.33;;;22.60;51.10;;;;;;6164599;28;83754;-66
2021/09/06 05:57:50;;;;;;;7.55;3.60;;;22.60;50.80;;;;;;6176242;28;81949;-64
2021/09/06 06:00:50;;;;;;;6.82;3.85;;;22.60;50.50;;;;;;6176224;28;80382;-66
2021/09/06 06:03:51;;;;;;;6.35;3.65;;;22.60;50.50;;;;;;6180800;28;84712;-66
2021/09/06 06:06:57;;;;;;;;;;;22.60;50.50;;;;;;6183699;28;82417;-66
2021/09/06 06:09:58;;;;;;;6.72;3.63;;;22.60;50.30;;;;;;6179527;28;82603;-65
2021/09/06 06:12:58;;;;;;;6.93;3.63;;;22.60;50.00;;;;;;6187739;28;81355;-64
2021/09/06 06:15:59;;;;;;;8.05;3.85;;;22.60;50.10;;;;;;6186062;28;82823;-64
2021/09/06 06:19:02;;;;;;;6.13;3.53;;;22.60;50.00;;;;;;6196143;28;83398;-64
2021/09/06 06:22:08;;;;;;;6.95;4.40;;;22.60;49.90;;;;;;6187125;28;83128;-65
2021/09/06 06:25:28;;;;;;;5.65;3.80;;;22.60;50.10;;;;;;6184306;28;80494;-66
2021/09/06 06:28:40;;;;;;;5.68;3.67;;;22.60;50.00;;;;;;6184602;28;83228;-66
2021/09/06 06:31:44;;;;;;;6.50;3.80;;;22.60;50.30;;;;;;6182373;28;83163;-67
2021/09/06 06:34:47;;;;;;;6.07;3.65;;;22.60;50.20;;;;;;6177813;28;82755;-66
2021/09/06 06:37:47;;;;;;;7.53;3.78;;;22.60;50.00;;;;;;6176544;28;82377;-66
2021/09/06 06:40:48;;;;;;;7.53;3.80;;;22.60;50.20;;;;;;6189195;28;82187;-66
2021/09/06 06:43:50;;;;;;;8.65;4.07;;;22.60;50.20;;;;;;6191180;28;82586;-66
2021/09/06 06:46:52;;;;;;;4.80;3.25;;;22.60;50.30;;;;;;6187193;28;82245;-66
2021/09/06 06:49:52;;;;;;;7.43;3.83;;;22.60;50.30;;;;;;6164327;28;82275;-65
2021/09/06 06:52:54;;;;;;;9.00;4.60;;;22.60;50.60;;;;;;6178263;28;80758;-65
2021/09/06 06:55:56;;;;;;;7.65;4.18;;;22.60;51.00;;;;;;6186727;28;83001;-65
2021/09/06 06:58:56;;;;;;;6.95;3.90;;;22.70;51.30;;;;;;6187511;28;80444;-65
2021/09/06 07:01:57;;;;;;;6.10;4.07;;;22.60;50.90;;;;;;6190855;28;80388;-66
2021/09/06 07:04:58;;;;;;;6.88;4.25;;;22.60;50.90;;;;;;6170942;28;87550;-66
2021/09/06 07:07:58;;;;;;;7.53;4.18;;;22.60;50.90;;;;;;6189321;28;82281;-65
2021/09/06 07:10:59;;;;;;;7.38;4.45;;;22.60;50.70;;;;;;6183496;28;82204;-66
2021/09/06 07:13:59;;;;;;;7.90;4.32;;;22.60;50.30;;;;;;6186269;28;80394;-66
2021/09/06 07:17:00;;;;;;;6.00;4.05;;;22.60;50.30;;;;;;6187158;28;81531;-66
2021/09/06 07:20:01;;;;;;;7.68;4.32;;;22.60;50.10;;;;;;6199022;28;83277;-67
2021/09/06 07:23:02;;;;;;;6.97;4.00;;;22.70;50.40;;;;;;6182305;28;82749;-66
2021/09/06 07:26:03;;;;;;;6.13;4.05;;;22.60;50.10;;;;;;6189345;28;83676;-66
2021/09/06 07:29:04;;;;;;;9.10;4.90;;;22.60;50.10;;;;;;6183408;28;82998;-66
2021/09/06 07:32:04;;;;;;;7.35;4.38;;;22.60;49.80;;;;;;6181687;28;82334;-66
2021/09/06 07:35:05;;;;;;;7.32;4.32;;;22.70;50.10;;;;;;6183442;28;80386;-66
2021/09/06 07:38:06;;;;;;;10.70;4.25;;;22.60;49.80;;;;;;6183692;28;83327;-65
2021/09/06 07:41:08;;;;;;;10.57;4.35;;;22.60;49.90;;;;;;6189280;28;81836;-68
2021/09/06 07:44:11;;;;;;;5.60;3.85;;;22.70;49.90;;;;;;6175089;28;83091;-65
2021/09/06 07:47:14;;;;;;;7.22;4.22;;;22.70;49.70;;;;;;6185632;28;83064;-65
2021/09/06 07:50:19;;;;;;;6.45;4.00;;;22.70;49.70;;;;;;6189091;28;83025;-65
2021/09/06 07:53:22;;;;;;;8.10;4.28;;;22.70;50.00;;;;;;6187896;28;83118;-65
2021/09/06 07:56:23;;;;;;;7.78;4.72;;;22.70;49.60;;;;;;6196245;28;83816;-66
2021/09/06 07:59:24;;;;;;;7.82;4.72;;;22.70;49.40;;;;;;6180201;28;83103;-66
2021/09/06 08:02:25;;;;;;;7.07;4.45;;;22.70;49.40;;;;;;6181923;28;83141;-65
2021/09/06 08:05:29;;;;;;;8.77;4.30;;;22.60;49.10;;;;;;6182880;28;82714;-64
2021/09/06 08:08:34;;;;;;;9.68;4.70;;;22.60;48.80;;;;;;6185361;28;81697;-65
2021/09/06 08:11:35;;;;;;;7.88;4.30;;;22.60;48.90;;;;;;6167136;28;80716;-65
2021/09/06 08:14:38;;;;;;;13.45;5.45;;;22.60;48.70;;;;;;6181195;28;83650;-65
2021/09/06 08:17:39;;;;;;;6.25;4.25;;;22.60;48.70;;;;;;6177807;28;87776;-67
2021/09/06 08:20:40;;;;;;;5.97;4.55;;;22.60;49.10;;;;;;6184675;28;85409;-66
2021/09/06 08:23:41;;;;;;;8.77;5.10;;;22.60;49.00;;;;;;6166670;28;81596;-66
2021/09/06 08:26:43;;;;;;;8.23;4.30;;;22.60;49.20;;;;;;6184781;28;82732;-66
2021/09/06 08:29:45;;;;;;;7.05;4.82;;;22.70;49.10;;;;;;6186453;28;83503;-66
2021/09/06 08:32:46;;;;;;;13.93;4.78;;;22.60;49.00;;;;;;6183332;28;82612;-66
2021/09/06 08:35:47;;;;;;;10.18;4.80;;;22.60;49.20;;;;;;6182128;28;83220;-66
2021/09/06 08:38:48;;;;;;;8.60;4.40;;;22.70;49.40;;;;;;6184087;28;82568;-65
2021/09/06 08:41:48;;;;;;;11.02;4.32;;;22.70;49.20;;;;;;6184936;28;80731;-66
2021/09/06 08:44:49;;;;;;;10.35;4.55;;;22.60;49.10;;;;;;6194714;28;83324;-65
2021/09/06 08:47:49;;;;;;;6.38;3.80;;;22.70;48.60;;;;;;6185008;28;82341;-65
2021/09/06 08:50:53;;;;;;;5.18;3.63;;;22.70;48.70;;;;;;6188687;28;83062;-66
2021/09/06 08:53:54;;;;;;;6.53;4.25;;;22.60;48.70;;;;;;6183380;28;81404;-65
2021/09/06 08:56:56;;;;;;;5.55;3.72;;;22.70;48.80;;;;;;6183020;28;82213;-64
2021/09/06 09:00:04;;;;;;;8.10;4.20;;;22.70;48.80;;;;;;6184360;28;81500;-65
2021/09/06 09:03:14;;;;;;;10.25;4.15;;;22.70;48.80;;;;;;6185115;28;83313;-64
2021/09/06 09:06:44;;;;;;;6.45;3.60;;;22.80;49.00;;;;;;6152975;28;80535;-65
2021/09/06 09:10:06;;;;;;;5.28;3.63;;;22.80;48.60;;;;;;6176059;28;82383;-64
2021/09/06 09:13:18;;;;;;;6.25;3.47;;;22.80;48.80;;;;;;6175118;28;82266;-65
2021/09/06 09:16:37;;;;;;;5.35;2.78;;;22.80;48.70;;;;;;6181541;28;82968;-64
2021/09/06 09:20:04;;;;;;;;;;;22.80;48.30;;;;;;6174489;28;80422;-65
2021/09/06 09:23:23;;;;;;;5.15;3.40;;;22.80;48.10;;;;;;6190984;28;79069;-65
2021/09/06 09:26:34;;;;;;;5.85;3.58;;;22.90;48.10;;;;;;6188112;28;80428;-65
2021/09/06 09:29:47;;;;;;;4.72;3.00;;;22.90;47.60;;;;;;6179662;28;84913;-65
2021/09/06 09:33:17;;;;;;;4.60;3.10;;;22.90;47.20;;;;;;6175620;28;81241;-65
2021/09/06 09:36:37;;;;;;;5.85;3.10;;;22.90;47.40;;;;;;6168684;28;81849;-65
2021/09/06 09:39:40;;;;;;;4.20;3.00;;;22.90;47.30;;;;;;6168999;28;80308;-66
2021/09/06 09:42:41;;;;;;;5.82;2.97;;;22.90;47.30;;;;;;6180305;28;80875;-66
2021/09/06 09:45:41;;;;;;;3.95;2.70;;;22.90;47.10;;;;;;6183453;28;80282;-66
2021/09/06 09:48:51;;;;;;;4.28;2.80;;;22.90;47.00;;;;;;6182604;28;81824;-66
2021/09/06 09:51:52;;;;;;;3.65;2.60;;;22.90;46.70;;;;;;6185983;28;80725;-65
2021/09/06 09:54:53;;;;;;;5.70;2.88;;;22.90;46.80;;;;;;6184336;28;80974;-66
2021/09/06 09:57:55;;;;;;;6.35;2.67;;;22.90;45.70;;;;;;6197073;28;80280;-66
2021/09/06 10:00:56;;;;;;;3.42;2.33;;;22.90;46.20;;;;;;6185010;28;81617;-64
2021/09/06 10:03:57;;;;;;;5.13;3.00;;;22.90;46.20;;;;;;6183728;28;81372;-65
2021/09/06 10:06:58;;;;;;;3.03;2.30;;;22.90;46.30;;;;;;6185245;28;82120;-66
2021/09/06 10:09:59;;;;;;;4.32;2.45;;;23.00;46.30;;;;;;6183359;28;82082;-65
2021/09/06 10:13:01;;;;;;;4.65;2.63;;;22.90;46.50;;;;;;6181227;28;81876;-65
2021/09/06 10:16:01;;;;;;;4.38;2.75;;;22.90;46.10;;;;;;6182071;28;81237;-67
2021/09/06 10:19:04;;;;;;;5.82;3.13;;;22.90;45.50;;;;;;6181337;28;81299;-65
2021/09/06 10:22:04;;;;;;;5.80;3.05;;;23.00;45.60;;;;;;6184348;28;80330;-65
2021/09/06 10:25:06;;;;;;;3.53;2.42;;;23.00;45.90;;;;;;6181311;28;80273;-65
2021/09/06 10:28:07;;;;;;;3.63;2.60;;;23.00;45.80;;;;;;6173029;28;81314;-64
2021/09/06 10:31:08;;;;;;;4.03;2.63;;;23.00;46.70;;;;;;6179030;28;82848;-65
2021/09/06 10:34:09;;;;;;;5.82;2.47;;;23.00;45.90;;;;;;6174154;28;82001;-65
2021/09/06 10:37:13;;;;;;;4.22;2.50;;;23.00;45.90;;;;;;6176363;28;80907;-64
2021/09/06 10:40:13;;;;;;;9.40;2.65;;;23.00;45.80;;;;;;6178818;28;83677;-65
2021/09/06 10:43:14;;;;;;;3.50;2.67;;;23.00;45.50;;;;;;6179930;28;80687;-65
2021/09/06 10:46:15;;;;;;;6.22;2.70;;;23.00;44.30;;;;;;6188574;28;80914;-64
2021/09/06 10:49:16;;;;;;;4.63;2.50;;;23.10;44.80;;;;;;6193105;28;80292;-64
2021/09/06 10:52:17;;;;;;;11.07;3.35;;;23.10;45.00;;;;;;6191850;28;81439;-64
2021/09/06 10:55:19;;;;;;;3.65;2.47;;;23.10;44.60;;;;;;6196491;28;81654;-63
2021/09/06 10:58:19;;;;;;;8.35;2.67;;;23.10;44.70;;;;;;6166189;28;81692;-64
2021/09/06 11:01:23;;;;;;;5.05;2.55;;;23.10;44.90;;;;;;6156570;28;81467;-65
2021/09/06 11:04:23;;;;;;;5.57;2.47;;;23.10;45.10;;;;;;6159128;28;80526;-65
2021/09/06 11:07:24;;;;;;;4.43;2.50;;;23.10;44.50;;;;;;6162730;28;80649;-66
2021/09/06 11:10:27;;;;;;;2.92;2.25;;;23.10;44.60;;;;;;6159981;28;81568;-66
2021/09/06 11:13:28;;;;;;;8.65;2.38;;;23.10;45.10;;;;;;6160260;28;80742;-65
2021/09/06 11:16:29;;;;;;;4.22;2.67;;;23.10;44.10;;;;;;6160358;28;81548;-63
2021/09/06 11:19:31;;;;;;;4.78;2.78;;;23.20;44.90;;;;;;6158859;28;80605;-65
2021/09/06 11:22:32;;;;;;;4.20;2.80;;;23.20;44.40;;;;;;6176706;28;81464;-65
2021/09/06 11:25:33;;;;;;;4.47;2.47;;;23.20;43.90;;;;;;6184365;28;81204;-66
2021/09/06 11:28:34;;;;;;;3.35;1.80;;;23.20;44.30;;;;;;6183899;28;80663;-65
2021/09/06 11:31:34;;;;;;;4.07;2.40;;;23.20;44.50;;;;;;6195477;28;80525;-66
2021/09/06 11:34:35;;;;;;;4.40;2.33;;;23.30;45.10;;;;;;6185514;28;80639;-66
2021/09/06 11:37:35;;;;;;;3.53;2.60;;;23.30;45.10;;;;;;6170913;28;79954;-65
2021/09/06 11:40:36;;;;;;;3.20;2.22;;;23.30;44.90;;;;;;6183833;28;81247;-65
2021/09/06 11:43:36;;;;;;;6.40;3.22;;;23.30;44.70;;;;;;6193594;28;82640;-65
2021/09/06 11:46:37;;;;;;;5.20;2.97;;;23.30;44.90;;;;;;6179997;28;80425;-66
2021/09/06 11:49:37;;;;;;;8.38;4.15;;;23.30;45.00;;;;;;6194107;28;81157;-65
2021/09/06 11:52:38;;;;;;;6.90;3.38;;;23.30;45.30;;;;;;6201378;28;80414;-65
2021/09/06 11:55:38;;;;;;;8.35;3.33;;;23.30;44.10;;;;;;6200479;28;82252;-65
2021/09/06 11:58:39;;;;;;;7.88;3.63;;;23.30;44.40;;;;;;6190035;28;80178;-65
2021/09/06 12:01:40;;;;;;;9.13;4.35;;;23.30;44.30;;;;;;6185599;28;81307;-65
2021/09/06 12:04:40;;;;;;;8.10;4.25;;;23.40;44.80;;;;;;6196622;28;80121;-66
2021/09/06 12:07:41;;;;;;;5.82;3.08;;;23.40;44.70;;;;;;6192209;28;80270;-66
2021/09/06 12:10:41;;;;;;;6.85;3.70;;;23.40;44.70;;;;;;6194913;28;80406;-67
2021/09/06 12:13:42;;;;;;;5.60;3.47;;;23.40;44.40;;;;;;6200233;28;80539;-64
2021/09/06 12:16:42;;;;;;;6.93;2.85;;;23.40;43.80;;;;;;6193006;28;80583;-64
2021/09/06 12:19:43;;;;;;;6.70;3.22;;;23.40;44.00;;;;;;6190365;28;80855;-64
2021/09/06 12:22:43;;;;;;;4.82;3.00;;;23.40;43.60;;;;;;6187108;28;80406;-65
2021/09/06 12:25:44;;;;;;;6.18;3.30;;;23.40;43.40;;;;;;6189952;28;83336;-65
2021/09/06 12:28:44;;;;;;;7.03;2.92;;;23.30;42.90;;;;;;6185044;28;80109;-66
2021/09/06 12:31:45;;;;;;;3.38;2.13;;;23.30;42.70;;;;;;6183215;28;80549;-66
2021/09/06 12:34:45;;;;;;;4.85;2.30;;;23.30;41.50;;;;;;6182253;28;80432;-66
2021/09/06 12:37:46;;;;;;;3.60;2.38;;;23.30;40.80;;;;;;6178331;28;80461;-66
2021/09/06 12:40:46;;;;;;;3.28;2.55;;;23.30;41.20;;;;;;6185146;28;81521;-65
2021/09/06 12:43:47;;;;;;;4.20;2.25;;;23.30;40.40;;;;;;6187831;28;81405;-66
2021/09/06 12:46:47;;;;;;;3.67;2.40;;;23.30;41.30;;;;;;6189573;28;80365;-66
2021/09/06 12:49:48;;;;;;;3.30;2.40;;;23.30;41.20;;;;;;6187424;28;87068;-66
2021/09/06 12:52:48;;;;;;;5.53;2.30;;;23.30;41.50;;;;;;6183681;28;80492;-67
2021/09/06 12:55:49;;;;;;;4.57;2.35;;;23.30;41.30;;;;;;6188987;28;80959;-66
2021/09/06 12:58:51;;;;;;;4.72;2.50;;;23.30;41.20;;;;;;6176086;28;81651;-66
2021/09/06 13:01:51;;;;;;;3.22;1.70;;;23.30;41.10;;;;;;6180508;28;81494;-66
2021/09/06 13:04:52;;;;;;;8.57;2.30;;;23.30;42.00;;;;;;6184534;28;81336;-67
2021/09/06 13:07:52;;;;;;;5.95;2.40;;;23.30;42.20;;;;;;6196809;28;81561;-66
2021/09/06 13:10:53;;;;;;;14.15;2.47;;;23.30;42.30;;;;;;6186144;28;82349;-66
2021/09/06 13:13:53;;;;;;;4.70;2.60;;;23.30;42.60;;;;;;6174791;28;81198;-66
2021/09/06 13:16:54;;;;;;;3.58;2.40;;;23.30;42.60;;;;;;6175966;28;81066;-66
2021/09/06 13:19:54;;;;;;;4.40;2.58;;;23.30;43.50;;;;;;6174678;28;81485;-67
2021/09/06 13:22:55;;;;;;;2.60;2.10;;;23.30;43.10;;;;;;6183370;28;80745;-66
2021/09/06 13:26:01;;;;;;;5.28;2.10;;;23.30;43.20;;;;;;6178476;28;80690;-66
2021/09/06 13:29:01;;;;;;;2.97;2.17;;;23.30;43.50;;;;;;6178752;28;80579;-67
2021/09/06 13:32:02;;;;;;;3.58;2.30;;;23.30;43.80;;;;;;6177793;28;81397;-66
2021/09/06 13:35:02;;;;;;;3.38;2.20;;;23.30;43.60;;;;;;6175023;28;80531;-66
2021/09/06 13:38:02;;;;;;;3.38;2.42;;;23.30;44.00;;;;;;6174505;28;81591;-68
2021/09/06 13:41:03;;;;;;;3.50;2.42;;;23.30;44.10;;;;;;6182131;28;81553;-67
2021/09/06 13:44:03;;;;;;;4.72;2.33;;;23.40;44.30;;;;;;6183481;28;80481;-67
2021/09/06 13:47:04;;;;;;;3.80;2.47;;;23.30;43.80;;;;;;6182410;28;80486;-67
2021/09/06 13:50:04;;;;;;;4.53;1.77;;;23.30;44.10;;;;;;6181046;28;80416;-66
2021/09/06 13:53:05;;;;;;;9.52;2.60;;;23.30;43.20;;;;;;6184935;28;81032;-67
2021/09/06 13:56:05;;;;;;;3.65;2.22;;;23.30;43.50;;;;;;6192197;28;81730;-66
2021/09/06 13:59:06;;;;;;;3.25;1.88;;;23.30;43.90;;;;;;6182588;28;80997;-66
2021/09/06 14:02:06;;;;;;;5.72;2.10;;;23.30;44.30;;;;;;6189958;28;80743;-64
2021/09/06 14:05:07;;;;;;;3.85;2.03;;;23.30;44.50;;;;;;6187850;28;80601;-64
2021/09/06 14:08:07;;;;;;;6.88;2.22;;;23.20;44.90;;;;;;6184043;28;80243;-66
2021/09/06 14:11:08;;;;;;;5.32;2.50;;;23.20;45.00;;;;;;6180601;28;87252;-66
2021/09/06 14:14:09;;;;;;;5.20;2.38;;;23.30;45.20;;;;;;6191201;28;80508;-66
2021/09/06 14:17:09;;;;;;;4.65;2.28;;;23.30;45.10;;;;;;6181911;28;80846;-65
2021/09/06 14:20:10;;;;;;;3.28;2.22;;;23.30;45.40;;;;;;6192128;28;80469;-66
2021/09/06 14:23:10;;;;;;;10.00;2.20;;;23.40;45.40;;;;;;6186545;28;80534;-66
2021/09/06 14:26:11;;;;;;;4.30;2.17;;;23.40;45.60;;;;;;6185865;28;80500;-65
2021/09/06 14:29:11;;;;;;;5.65;2.50;;;23.40;45.60;;;;;;6186222;28;80634;-65
2021/09/06 14:32:12;;;;;;;5.80;2.53;;;23.40;45.80;;;;;;6177875;28;81005;-64
2021/09/06 14:35:12;;;;;;;5.97;2.33;;;23.40;45.50;;;;;;6184202;28;81006;-64
2021/09/06 14:38:13;;;;;;;4.57;2.40;;;23.40;45.60;;;;;;6192970;28;80188;-65
2021/09/06 14:41:13;;;;;;;26.75;3.58;;;23.40;45.80;;;;;;6199183;28;80535;-65
2021/09/06 14:44:14;;;;;;;6.95;2.33;;;23.40;45.30;;;;;;6184538;28;80465;-66
2021/09/06 14:47:14;;;;;;;4.22;2.28;;;23.40;45.30;;;;;;6185873;28;81499;-65
2021/09/06 14:50:15;;;;;;;3.25;2.22;;;23.30;45.50;;;;;;6185742;28;81073;-66
2021/09/06 14:53:15;;;;;;;6.57;2.20;;;23.30;45.90;;;;;;6185615;28;80874;-66
2021/09/06 14:56:16;;;;;;;3.20;1.90;;;23.30;46.00;;;;;;6191572;28;81616;-66
2021/09/06 14:59:16;;;;;;;3.28;2.10;;;23.30;45.90;;;;;;6191525;28;81315;-65
2021/09/06 15:02:17;;;;;;;3.28;2.03;;;23.30;46.00;;;;;;6183389;28;80854;-66
2021/09/06 15:05:18;;;;;;;3.67;2.17;;;23.40;45.70;;;;;;6185272;28;81470;-65
2021/09/06 15:08:18;;;;;;;5.13;2.40;;;23.40;45.80;;;;;;6175021;28;82265;-66
2021/09/06 15:11:23;;;;;;;4.72;2.33;;;23.40;46.10;;;;;;6185302;28;83841;-66
2021/09/06 15:14:23;;;;;;;4.47;2.10;;;23.40;46.20;;;;;;6201104;28;80914;-67
2021/09/06 15:17:24;;;;;;;3.05;2.20;;;23.30;46.40;;;;;;6178725;28;81841;-68
2021/09/06 15:20:24;;;;;;;3.25;1.77;;;23.30;46.60;;;;;;6183504;28;81019;-66
2021/09/06 15:23:26;;;;;;;23.33;2.33;;;23.30;46.40;;;;;;6184656;28;80560;-67
2021/09/06 15:26:26;;;;;;;3.00;2.20;;;23.30;46.50;;;;;;6178801;28;80722;-67
2021/09/06 15:29:27;;;;;;;2.47;1.75;;;23.30;46.10;;;;;;6184089;28;81579;-69
2021/09/06 15:32:28;;;;;;;5.07;1.90;;;23.30;46.00;;;;;;6185082;28;81382;-67
2021/09/06 15:35:30;;;;;;;2.70;2.00;;;23.40;45.90;;;;;;6198686;28;80308;-68
2021/09/06 15:38:32;;;;;;;5.75;2.45;;;23.30;45.90;;;;;;6185498;28;80394;-67
2021/09/06 15:41:33;;;;;;;3.17;1.88;;;23.40;46.60;;;;;;6184521;28;80766;-67
2021/09/06 15:44:33;;;;;;;6.50;2.75;;;23.30;46.00;;;;;;6182351;28;82051;-66
2021/09/06 15:47:34;;;;;;;3.40;2.05;;;23.30;46.00;;;;;;6176263;28;80880;-67
2021/09/06 15:50:34;;;;;;;9.23;2.60;;;23.30;46.00;;;;;;6183626;28;82015;-66